Airfield :
LOGIN :

Register | Disclaimer

   EN    FR    IT 

 










Legend :    VFR   Marginal VFR   IFR   Intensive IFR   Very Intensive IFR
Visi :
Ceiling :
>= 8 km
>= 3000ft
5 to 8 km
1000 to 3000 ft
1500m to 5 km
500 to 1000 ft
800 to 1500m
200 to 500 ft
< 800m
< 200 ft
Symbols :   Thunderstorms  Fog  Heavy snow  Heavy precipitations  Wind > 20 kt
SIGMETs :     Misc.  Thunderstorms  Icing  Turbulence  Mountain Waves  Volcanic Ashes






- Airport Elevation : 257 ft
- IATA code : MAN


EGCC - Manchester

CURRENT METAR :
  • 272150Z AUTO 09004KT 9999 NCD 01/M01 Q1017 TEMPO 4000 BR

EXPIRED METARs :
  • 272120Z AUTO 08005KT 9999 NCD 01/M01 Q1017 TEMPO 4000 BR
  • 272050Z AUTO 09004KT 9999 NCD 02/M00 Q1017 TEMPO 4000 BR
  • 272020Z AUTO 09004KT 9999 NCD 02/00 Q1018 TEMPO 4000 BR
  • 271950Z AUTO 09003KT 9999 NCD 02/01 Q1018 TEMPO 4000 BR
  • 271920Z AUTO 12002KT 9999 SCT046 03/01 Q1018 TEMPO 4000 BR

TAF TAF EGCC
Valid from the 27 at 18:00 until the 29 at 00:00 UTC


271654Z 2718/2824 10004KT 9999 SCT045
TEMPO 2718/2802 4000 BR
PROB30
TEMPO 2719/2801 0500 FG BKN001
PROB30
TEMPO 2801/2824 6000 -RA BKN012
ATIS : +44 161 499 2324



MET'MAP, your aeronautical weather chart ! - Copyright ORBIFLY December 2007 - Disclaimer

ORBIFLY MET'MAP TEAM :

Programming & Development : Alexandra Zaïnal
Concept & original design : Baudouin d'Aumeries
Assistance for programming : Marc-Olivier Méhu
Technical & hardware support : Manuel Goepfert

Contact : metmap@orbifly.com




SOURCES & CREDITS :

   NOAA